Time;durP1;ratioP1;P1;durP2;ratioP2;P2;SDS_P1;SDS_P2;PMS_P1;PMS_P2;Temp;Humidity;BMP_temperature;BMP_pressure;BME280_temperature;BME280_humidity;BME280_pressure;Samples;Min_cycle;Max_cycle;Signal;HPM_P1;HPM_P2
2022/03/07 00:01:57;;;;;;;53.47;17.90;;;-0.40;99.90;;;;;;5131257;27;20085;-72
2022/03/07 00:04:23;;;;;;;51.90;18.38;;;-0.50;99.90;;;;;;5131213;27;20035;-72
2022/03/07 00:06:49;;;;;;;43.70;16.38;;;-0.50;99.90;;;;;;5130620;28;20115;-72
2022/03/07 00:09:15;;;;;;;52.72;16.58;;;-0.60;99.90;;;;;;5113228;28;20051;-74
2022/03/07 00:11:42;;;;;;;52.13;17.63;;;-0.60;99.90;;;;;;5080385;28;20194;-73
2022/03/07 00:14:08;;;;;;;51.08;15.80;;;-0.60;99.90;;;;;;5111207;28;20044;-72
2022/03/07 00:16:34;;;;;;;55.53;17.13;;;-0.60;99.90;;;;;;5091663;28;20159;-73
2022/03/07 00:19:01;;;;;;;45.70;15.80;;;-0.60;99.90;;;;;;5092995;28;20165;-72
2022/03/07 00:21:27;;;;;;;43.50;16.13;;;-0.80;99.90;;;;;;5092498;28;20044;-73
2022/03/07 00:23:53;;;;;;;47.35;17.35;;;-0.80;99.90;;;;;;5092679;28;20046;-72
2022/03/07 00:26:19;;;;;;;48.70;16.63;;;-0.80;99.90;;;;;;5113524;28;20076;-73
2022/03/07 00:28:46;;;;;;;43.22;16.17;;;-0.90;99.90;;;;;;5129738;28;20047;-73
2022/03/07 00:31:12;;;;;;;38.38;14.27;;;-0.90;99.90;;;;;;5131055;27;20133;-73
2022/03/07 00:33:38;;;;;;;44.47;14.93;;;-0.90;99.90;;;;;;5112170;28;20051;-74
2022/03/07 00:36:05;;;;;;;39.58;14.05;;;-0.90;99.90;;;;;;5130986;27;20047;-73
2022/03/07 00:38:31;;;;;;;40.67;13.65;;;-1.00;99.90;;;;;;5130663;27;20051;-73
2022/03/07 00:40:58;;;;;;;35.50;13.45;;;-1.00;99.90;;;;;;5111065;28;20043;-73
2022/03/07 00:43:24;;;;;;;36.17;12.77;;;-1.00;99.90;;;;;;5112076;28;20069;-74
2022/03/07 00:45:51;;;;;;;42.25;15.65;;;-1.00;99.90;;;;;;5075107;28;20289;-73
2022/03/07 00:48:17;;;;;;;42.40;16.48;;;-1.00;99.90;;;;;;5111848;28;20137;-73
2022/03/07 00:50:48;;;;;;;42.78;16.55;;;-1.10;99.90;;;;;;5095166;28;20055;-72
2022/03/07 00:53:16;;;;;;;41.00;15.48;;;-1.10;99.90;;;;;;5079280;28;20506;-73
2022/03/07 00:55:42;;;;;;;40.40;15.10;;;-1.20;99.90;;;;;;5111834;28;20417;-72
2022/03/07 00:58:08;;;;;;;44.47;15.88;;;-1.20;99.90;;;;;;5109085;28;20455;-73
2022/03/07 01:00:35;;;;;;;40.42;14.45;;;-1.20;99.90;;;;;;5113149;28;20116;-73
2022/03/07 01:03:02;;;;;;;37.95;14.50;;;-1.20;99.90;;;;;;5129340;27;20039;-74
2022/03/07 01:05:28;;;;;;;37.22;14.48;;;-1.20;99.90;;;;;;5133709;27;20078;-73
2022/03/07 01:07:54;;;;;;;42.13;14.68;;;-1.30;99.90;;;;;;5116585;27;20494;-72
2022/03/07 01:10:20;;;;;;;43.28;14.52;;;-1.30;99.90;;;;;;5112775;27;20047;-74
2022/03/07 01:12:46;;;;;;;48.05;15.50;;;-1.30;99.90;;;;;;5094291;28;20043;-72
2022/03/07 01:15:11;;;;;;;41.30;13.77;;;-1.40;99.90;;;;;;5095071;28;20525;-73
2022/03/07 01:17:37;;;;;;;39.70;14.68;;;-1.40;99.90;;;;;;5117766;27;20063;-73
2022/03/07 01:20:06;;;;;;;49.42;15.63;;;-1.40;99.90;;;;;;5115856;27;20086;-73
2022/03/07 01:22:32;;;;;;;43.55;13.95;;;-1.50;99.90;;;;;;5097579;27;20475;-73
2022/03/07 01:24:58;;;;;;;35.55;13.32;;;-1.50;99.90;;;;;;5132796;27;20054;-73
2022/03/07 01:27:24;;;;;;;39.03;14.40;;;-1.50;99.90;;;;;;5131172;27;20044;-73
2022/03/07 01:29:50;;;;;;;37.05;13.18;;;-1.50;99.90;;;;;;5133656;27;20046;-71
2022/03/07 01:32:15;;;;;;;42.55;14.23;;;-1.50;99.90;;;;;;5132481;27;20047;-72
2022/03/07 01:34:41;;;;;;;36.17;14.48;;;-1.50;99.90;;;;;;5131830;27;20043;-72
2022/03/07 01:37:07;;;;;;;39.03;14.32;;;-1.50;99.90;;;;;;5124510;27;20047;-74
2022/03/07 01:39:33;;;;;;;40.72;15.00;;;-1.60;99.90;;;;;;5133513;27;20051;-71
2022/03/07 01:41:59;;;;;;;48.40;15.48;;;-1.60;99.90;;;;;;5076476;28;20051;-71
2022/03/07 01:44:29;;;;;;;41.13;14.88;;;-1.60;99.90;;;;;;5108164;28;20056;-71
2022/03/07 01:46:57;;;;;;;42.25;14.35;;;-1.60;99.90;;;;;;5094750;28;20109;-73
2022/03/07 01:49:24;;;;;;;42.03;14.55;;;-1.70;99.90;;;;;;5095163;28;20093;-73
2022/03/07 01:51:49;;;;;;;43.38;15.27;;;-1.70;99.90;;;;;;5120220;27;20160;-73
2022/03/07 01:54:17;;;;;;;43.97;15.82;;;-1.70;99.90;;;;;;5132452;27;20493;-71
2022/03/07 01:56:45;;;;;;;38.47;14.85;;;-1.70;99.90;;;;;;5130810;27;20482;-72
2022/03/07 01:59:12;;;;;;;42.25;15.27;;;-1.80;99.90;;;;;;5114916;27;20130;-71
2022/03/07 02:01:38;;;;;;;;;;;-1.80;99.90;;;;;;5131986;27;20089;-72
2022/03/07 02:04:05;;;;;;;43.47;13.18;;;-1.70;99.90;;;;;;5115450;27;20383;-71
2022/03/07 02:06:31;;;;;;;40.22;14.30;;;-1.80;99.90;;;;;;5097480;27;20045;-72
2022/03/07 02:08:57;;;;;;;35.20;13.48;;;-1.70;99.90;;;;;;5129937;27;20075;-72
2022/03/07 02:11:24;;;;;;;39.17;13.97;;;-1.70;99.90;;;;;;5101811;28;20035;-73
2022/03/07 02:13:50;;;;;;;39.25;13.48;;;-1.70;99.90;;;;;;5077279;28;20085;-73
2022/03/07 02:16:17;;;;;;;41.90;13.07;;;-1.70;99.90;;;;;;5094148;28;20051;-72
2022/03/07 02:18:44;;;;;;;43.63;14.93;;;-1.70;99.90;;;;;;5093803;28;20059;-72
2022/03/07 02:21:15;;;;;;;40.75;13.50;;;-1.80;99.90;;;;;;5093919;28;20075;-73
2022/03/07 02:23:43;;;;;;;39.83;13.55;;;-1.80;99.90;;;;;;5095680;27;20039;-72
2022/03/07 02:26:15;;;;;;;39.67;13.65;;;-1.90;99.90;;;;;;5130158;27;20375;-72
2022/03/07 02:28:42;;;;;;;41.42;13.05;;;-1.90;99.90;;;;;;5132825;27;20046;-72
2022/03/07 02:31:08;;;;;;;49.80;15.65;;;-1.90;99.90;;;;;;5131366;27;20079;-72
2022/03/07 02:33:34;;;;;;;46.43;14.77;;;-1.90;99.90;;;;;;5105672;27;20047;-72
2022/03/07 02:36:01;;;;;;;47.80;14.98;;;-1.90;99.90;;;;;;5114090;27;20296;-73
2022/03/07 02:38:26;;;;;;;37.17;13.02;;;-1.80;99.90;;;;;;5131756;27;20482;-71
2022/03/07 02:40:52;;;;;;;39.85;13.68;;;-1.80;99.90;;;;;;5130592;27;20035;-72
2022/03/07 02:43:18;;;;;;;40.83;13.32;;;-1.90;99.90;;;;;;5131825;27;20471;-72
2022/03/07 02:45:45;;;;;;;38.22;13.90;;;-1.90;99.90;;;;;;5130295;27;20047;-72
2022/03/07 02:48:11;;;;;;;45.35;15.00;;;-1.80;99.90;;;;;;5114487;27;20062;-72
2022/03/07 02:50:37;;;;;;;46.10;15.40;;;-1.70;99.90;;;;;;5130498;27;20467;-73
2022/03/07 02:53:03;;;;;;;48.67;14.48;;;-1.70;99.90;;;;;;5113836;27;20036;-72
2022/03/07 02:55:30;;;;;;;48.20;14.25;;;-1.70;99.90;;;;;;5128994;27;20039;-72
2022/03/07 02:57:56;;;;;;;38.08;13.63;;;-1.80;99.90;;;;;;5130701;27;20047;-72
2022/03/07 03:00:22;;;;;;;44.30;13.98;;;-1.80;99.90;;;;;;5093838;28;20515;-71
2022/03/07 03:02:47;;;;;;;41.95;13.27;;;-1.90;99.90;;;;;;5076192;28;20051;-71
2022/03/07 03:05:13;;;;;;;39.83;14.07;;;-1.90;99.90;;;;;;5108699;27;20054;-71
2022/03/07 03:07:39;;;;;;;44.67;13.48;;;-1.80;99.90;;;;;;5131000;27;20120;-72
2022/03/07 03:10:06;;;;;;;35.85;13.15;;;-1.80;99.90;;;;;;5130806;27;20091;-72
2022/03/07 03:12:32;;;;;;;36.53;12.80;;;-1.80;99.90;;;;;;5090857;28;20543;-71
2022/03/07 03:14:58;;;;;;;38.08;13.93;;;-1.90;99.90;;;;;;5092773;28;20043;-71
2022/03/07 03:17:26;;;;;;;36.30;13.70;;;-1.90;99.90;;;;;;5092795;28;20094;-73
2022/03/07 03:19:52;;;;;;;;;;;-2.00;99.90;;;;;;5111311;27;20086;-73
2022/03/07 03:22:19;;;;;;;37.08;13.05;;;-2.00;99.90;;;;;;5131937;27;19919;-72
2022/03/07 03:24:46;;;;;;;42.47;12.98;;;-2.00;99.90;;;;;;5126157;27;20098;-73
2022/03/07 03:27:12;;;;;;;36.85;13.40;;;-2.10;99.90;;;;;;5129055;27;20035;-73
2022/03/07 03:29:38;;;;;;;44.05;13.85;;;-2.10;99.90;;;;;;5131113;27;20050;-72
2022/03/07 03:32:05;;;;;;;37.72;14.27;;;-2.10;99.90;;;;;;5130971;27;20055;-73
2022/03/07 03:34:31;;;;;;;42.53;14.68;;;-2.10;99.90;;;;;;5113741;28;20101;-72
2022/03/07 03:36:56;;;;;;;39.88;13.20;;;-2.20;99.90;;;;;;5112263;28;20094;-72
2022/03/07 03:39:22;;;;;;;42.00;13.63;;;-2.20;99.90;;;;;;5091458;28;20053;-72
2022/03/07 03:41:48;;;;;;;39.88;13.93;;;-2.20;99.90;;;;;;5129476;27;20062;-72
2022/03/07 03:44:14;;;;;;;43.17;13.90;;;-2.30;99.90;;;;;;5132151;27;20047;-71
2022/03/07 03:46:40;;;;;;;33.53;12.68;;;-2.30;99.90;;;;;;5113176;28;20043;-71
2022/03/07 03:49:06;;;;;;;39.17;13.13;;;-2.30;99.90;;;;;;5125447;28;20047;-71
2022/03/07 03:51:34;;;;;;;39.08;13.20;;;-2.30;99.90;;;;;;5110931;28;20495;-71
2022/03/07 03:54:00;;;;;;;37.35;12.93;;;-2.30;99.90;;;;;;5125276;28;20065;-72
2022/03/07 03:56:26;;;;;;;38.97;14.00;;;-2.40;99.90;;;;;;5128036;28;20065;-72
2022/03/07 03:58:52;;;;;;;33.15;12.25;;;-2.40;99.90;;;;;;5131319;28;20051;-71
2022/03/07 04:01:18;;;;;;;34.38;13.25;;;-2.40;99.90;;;;;;5130487;28;20123;-72
2022/03/07 04:03:44;;;;;;;35.63;13.38;;;-2.40;99.90;;;;;;5130524;28;20443;-72
2022/03/07 04:06:10;;;;;;;45.63;15.00;;;-2.50;99.90;;;;;;5129924;28;20475;-71
2022/03/07 04:08:49;;;;;;;41.28;13.45;;;-2.40;99.90;;;;;;5131860;27;20047;-71
2022/03/07 04:11:15;;;;;;;39.42;13.15;;;-2.50;99.90;;;;;;5129465;27;20074;-72
2022/03/07 04:13:42;;;;;;;42.40;13.68;;;-2.50;99.90;;;;;;5113464;28;20139;-73
2022/03/07 04:16:07;;;;;;;45.38;13.80;;;-2.40;99.90;;;;;;5112541;28;20107;-73
2022/03/07 04:18:34;;;;;;;43.65;14.55;;;-2.50;99.90;;;;;;5131853;28;20440;-72
2022/03/07 04:21:00;;;;;;;39.95;14.25;;;-2.50;99.90;;;;;;5095520;28;20135;-72
2022/03/07 04:23:26;;;;;;;39.20;13.70;;;-2.50;99.90;;;;;;5116157;27;20047;-72
2022/03/07 04:25:51;;;;;;;41.20;14.13;;;-2.60;99.90;;;;;;5114411;27;20047;-72
2022/03/07 04:28:17;;;;;;;42.00;14.68;;;-2.50;99.90;;;;;;5134655;27;20069;-72
2022/03/07 04:30:43;;;;;;;38.95;12.82;;;-2.60;99.90;;;;;;5132076;27;20277;-71
2022/03/07 04:33:09;;;;;;;38.75;13.80;;;-2.60;99.90;;;;;;5096026;28;20039;-73
2022/03/07 04:35:35;;;;;;;44.80;15.18;;;-2.60;99.90;;;;;;5114663;28;20044;-72
2022/03/07 04:38:01;;;;;;;37.58;13.57;;;-2.70;99.90;;;;;;5095904;28;20084;-71
2022/03/07 04:40:28;;;;;;;39.25;13.40;;;-2.70;99.90;;;;;;5122485;27;20070;-73
2022/03/07 04:42:56;;;;;;;34.97;12.50;;;-2.60;99.90;;;;;;5116704;27;20115;-72
2022/03/07 04:45:22;;;;;;;37.83;13.05;;;-2.60;99.90;;;;;;5105251;28;20290;-71
2022/03/07 04:47:49;;;;;;;39.30;13.18;;;-2.50;99.90;;;;;;5079524;28;20043;-72
2022/03/07 04:50:15;;;;;;;35.77;12.73;;;-2.50;99.90;;;;;;5062771;28;20059;-71
2022/03/07 04:52:42;;;;;;;39.92;12.73;;;-2.40;99.90;;;;;;5114167;28;20296;-72
2022/03/07 04:55:13;;;;;;;36.47;11.75;;;-2.40;99.90;;;;;;5095630;28;20223;-71
2022/03/07 04:57:39;;;;;;;41.70;13.60;;;-2.30;99.90;;;;;;5094826;28;20035;-71
2022/03/07 05:00:08;;;;;;;39.53;13.57;;;-2.30;99.90;;;;;;5120450;27;20046;-72
2022/03/07 05:02:34;;;;;;;39.80;13.48;;;-2.20;99.90;;;;;;5133022;27;20058;-71
2022/03/07 05:05:00;;;;;;;43.72;13.57;;;-2.10;99.90;;;;;;5134278;27;20047;-72
2022/03/07 05:07:26;;;;;;;41.58;12.80;;;-2.10;99.90;;;;;;5116171;27;20043;-72
2022/03/07 05:09:51;;;;;;;47.80;15.25;;;-2.00;99.90;;;;;;5134069;27;20046;-72
2022/03/07 05:12:17;;;;;;;41.83;14.27;;;-2.00;99.90;;;;;;5114087;27;20043;-71
2022/03/07 05:14:43;;;;;;;42.17;14.38;;;-2.00;99.90;;;;;;5078757;28;20039;-72
2022/03/07 05:17:09;;;;;;;45.55;13.82;;;-1.90;99.90;;;;;;5125434;27;20124;-73
2022/03/07 05:19:35;;;;;;;40.78;13.82;;;-1.90;99.90;;;;;;5116095;27;20467;-71
2022/03/07 05:22:01;;;;;;;42.85;13.65;;;-1.90;99.90;;;;;;5113080;28;20392;-72
2022/03/07 05:24:27;;;;;;;41.40;14.75;;;-1.90;99.90;;;;;;5095823;28;20051;-71
2022/03/07 05:26:53;;;;;;;40.72;13.70;;;-1.90;99.90;;;;;;5093287;28;20048;-71
2022/03/07 05:29:19;;;;;;;45.47;15.40;;;-1.90;99.90;;;;;;5095609;28;20051;-71
2022/03/07 05:31:45;;;;;;;45.20;13.82;;;-1.90;99.90;;;;;;5124799;27;20452;-71
2022/03/07 05:34:11;;;;;;;41.70;14.05;;;-1.90;99.90;;;;;;5132507;27;20058;-71
2022/03/07 05:36:37;;;;;;;42.90;13.48;;;-2.00;99.90;;;;;;5133751;27;20047;-71
2022/03/07 05:39:04;;;;;;;46.38;15.60;;;-2.00;99.90;;;;;;5132619;27;20103;-72
2022/03/07 05:41:30;;;;;;;42.15;14.23;;;-2.10;99.90;;;;;;5132286;27;20083;-71
2022/03/07 05:43:56;;;;;;;51.25;14.95;;;-2.00;99.90;;;;;;5133661;27;20035;-74
2022/03/07 05:46:22;;;;;;;41.70;15.13;;;-2.00;99.90;;;;;;5131936;27;20047;-72
2022/03/07 05:48:48;;;;;;;42.15;13.70;;;-2.00;99.90;;;;;;5098622;27;20054;-72
2022/03/07 05:51:20;;;;;;;37.88;14.23;;;-1.90;99.90;;;;;;5119773;27;20122;-72
2022/03/07 05:53:46;;;;;;;37.72;13.75;;;-2.00;99.90;;;;;;5133957;27;20047;-72
2022/03/07 05:56:12;;;;;;;42.80;15.55;;;-2.00;99.90;;;;;;5112988;27;20423;-71
2022/03/07 05:58:38;;;;;;;49.72;16.77;;;-2.00;99.90;;;;;;5115779;27;20035;-72
2022/03/07 06:01:03;;;;;;;44.30;15.90;;;-1.90;99.90;;;;;;5114604;27;20047;-71
2022/03/07 06:03:29;;;;;;;38.60;14.80;;;-2.00;99.90;;;;;;5133992;27;20223;-72
2022/03/07 06:05:55;;;;;;;49.22;15.05;;;-2.00;99.90;;;;;;5131921;27;20051;-72
2022/03/07 06:08:21;;;;;;;42.00;16.50;;;-1.90;99.90;;;;;;5127937;27;20047;-72
2022/03/07 06:10:47;;;;;;;49.20;16.10;;;-1.90;99.90;;;;;;5092720;28;20050;-71
2022/03/07 06:13:13;;;;;;;48.30;15.82;;;-1.80;99.90;;;;;;5118944;27;20039;-71
2022/03/07 06:15:43;;;;;;;47.42;18.13;;;-1.70;99.90;;;;;;5114641;27;20057;-72
2022/03/07 06:18:11;;;;;;;49.47;16.95;;;-1.60;99.90;;;;;;5077837;28;20062;-71
2022/03/07 06:20:37;;;;;;;53.72;17.80;;;-1.60;99.90;;;;;;5111238;28;20055;-72
2022/03/07 06:23:04;;;;;;;51.50;17.45;;;-1.50;99.90;;;;;;5111047;28;20104;-71
2022/03/07 06:25:33;;;;;;;52.28;17.30;;;-1.50;99.90;;;;;;5109397;28;20055;-72
2022/03/07 06:28:02;;;;;;;50.80;17.85;;;-1.50;99.90;;;;;;5111773;28;20048;-72
2022/03/07 06:30:28;;;;;;;47.00;17.73;;;-1.50;99.90;;;;;;5111889;28;20537;-71
2022/03/07 06:32:54;;;;;;;54.03;17.95;;;-1.40;99.90;;;;;;5093998;28;20040;-72
2022/03/07 06:35:20;;;;;;;54.50;17.70;;;-1.30;99.90;;;;;;5093644;28;20039;-72
2022/03/07 06:37:51;;;;;;;60.00;18.90;;;-1.30;99.90;;;;;;5111372;28;20046;-74
2022/03/07 06:40:18;;;;;;;52.35;17.83;;;-1.30;99.90;;;;;;5092680;28;20054;-71
2022/03/07 06:42:46;;;;;;;54.97;19.25;;;-1.20;99.90;;;;;;5112046;28;20127;-74
2022/03/07 06:45:12;;;;;;;52.35;20.15;;;-1.20;99.90;;;;;;5105903;28;20117;-72
2022/03/07 06:47:42;;;;;;;53.10;19.90;;;-1.20;99.90;;;;;;5097313;28;20488;-72
2022/03/07 06:50:08;;;;;;;49.92;17.98;;;-1.10;99.90;;;;;;5110315;28;20039;-72
2022/03/07 06:52:34;;;;;;;63.30;18.83;;;-1.20;99.90;;;;;;5111835;28;20202;-72
2022/03/07 06:55:00;;;;;;;56.22;19.70;;;-1.20;99.90;;;;;;5112132;28;20189;-72
2022/03/07 06:57:26;;;;;;;53.67;17.83;;;-1.20;99.90;;;;;;5108505;28;20036;-72
2022/03/07 06:59:52;;;;;;;51.13;18.98;;;-1.10;99.90;;;;;;5073206;28;20134;-71
2022/03/07 07:02:18;;;;;;;58.45;19.23;;;-1.10;99.90;;;;;;5072407;28;20052;-72
2022/03/07 07:04:44;;;;;;;50.42;17.52;;;-1.10;99.90;;;;;;5090544;28;20047;-71
2022/03/07 07:07:10;;;;;;;55.00;18.88;;;-1.10;99.90;;;;;;5108146;28;20050;-71
2022/03/07 07:09:36;;;;;;;60.65;21.63;;;-1.00;99.90;;;;;;5110534;28;20039;-72
2022/03/07 07:12:03;;;;;;;58.20;21.63;;;-0.90;99.90;;;;;;5107973;28;20047;-73
2022/03/07 07:14:29;;;;;;;58.10;22.23;;;-0.90;99.90;;;;;;5111029;28;20043;-72
2022/03/07 07:16:56;;;;;;;69.43;24.05;;;-1.00;99.90;;;;;;5094108;28;20505;-72
2022/03/07 07:19:22;;;;;;;68.13;23.58;;;-1.00;99.90;;;;;;5131948;27;20402;-72
2022/03/07 07:21:48;;;;;;;62.38;21.48;;;-0.90;99.90;;;;;;5111101;27;20035;-72
2022/03/07 07:24:13;;;;;;;68.70;23.10;;;-1.00;99.90;;;;;;5113685;28;20474;-72
2022/03/07 07:26:39;;;;;;;67.95;23.58;;;-0.90;99.90;;;;;;5128964;27;20047;-72
2022/03/07 07:29:06;;;;;;;66.97;24.23;;;-0.90;99.90;;;;;;5132134;27;20062;-73
2022/03/07 07:31:32;;;;;;;75.53;24.48;;;-0.80;99.90;;;;;;5094929;27;20451;-72
2022/03/07 07:33:57;;;;;;;69.50;26.27;;;-0.80;99.90;;;;;;5113348;28;20035;-72
2022/03/07 07:36:23;;;;;;;79.43;27.73;;;-0.70;99.90;;;;;;5131140;27;20050;-73
2022/03/07 07:38:49;;;;;;;77.30;27.45;;;-0.70;99.90;;;;;;5132437;28;20372;-74
2022/03/07 07:41:15;;;;;;;77.50;28.35;;;-0.60;99.90;;;;;;5094544;28;20043;-73
2022/03/07 07:43:41;;;;;;;76.10;29.65;;;-0.60;99.90;;;;;;5089287;28;20142;-72
2022/03/07 07:46:07;;;;;;;76.88;28.45;;;-0.50;99.90;;;;;;5093115;28;20047;-71
2022/03/07 07:48:32;;;;;;;85.07;32.10;;;-0.50;99.90;;;;;;5059476;28;20055;-72
2022/03/07 07:50:58;;;;;;;80.80;31.30;;;-0.40;99.90;;;;;;5093949;28;20082;-73
2022/03/07 07:53:24;;;;;;;85.07;31.10;;;-0.30;99.90;;;;;;5130250;28;20053;-73
2022/03/07 07:55:50;;;;;;;79.55;30.75;;;-0.20;99.90;;;;;;5111994;28;20047;-72
2022/03/07 07:58:16;;;;;;;76.53;30.65;;;-0.10;99.90;;;;;;5116061;27;20082;-73
2022/03/07 08:00:41;;;;;;;78.60;29.15;;;0.10;99.90;;;;;;5134643;27;20395;-72
2022/03/07 08:03:07;;;;;;;76.15;30.33;;;0.10;99.90;;;;;;5101067;27;20039;-72
2022/03/07 08:05:33;;;;;;;71.57;27.08;;;0.20;99.90;;;;;;5121742;27;20043;-73
2022/03/07 08:07:59;;;;;;;69.95;26.38;;;0.30;99.90;;;;;;5117431;27;20043;-73
2022/03/07 08:10:25;;;;;;;76.57;27.02;;;0.30;99.90;;;;;;5105759;27;20044;-73
2022/03/07 08:12:51;;;;;;;71.95;27.60;;;0.40;99.90;;;;;;5117347;27;20057;-73
2022/03/07 08:15:17;;;;;;;75.93;26.63;;;0.50;99.90;;;;;;5082857;27;20055;-74
2022/03/07 08:17:49;;;;;;;77.35;26.98;;;0.50;99.90;;;;;;5117354;27;20090;-74
2022/03/07 08:20:25;;;;;;;62.42;25.95;;;0.60;99.90;;;;;;5116754;27;20047;-74
2022/03/07 08:22:51;;;;;;;74.50;25.02;;;0.70;99.90;;;;;;5135565;27;20047;-74
2022/03/07 08:25:18;;;;;;;79.28;27.92;;;0.80;99.90;;;;;;5133275;27;20482;-74
2022/03/07 08:27:44;;;;;;;69.18;26.77;;;0.90;99.90;;;;;;5099244;27;20058;-74
2022/03/07 08:30:12;;;;;;;73.22;27.58;;;1.00;99.90;;;;;;5134818;27;20043;-74
2022/03/07 08:32:40;;;;;;;74.97;26.45;;;1.00;99.90;;;;;;5134627;27;20103;-73
2022/03/07 08:35:07;;;;;;;73.38;25.67;;;1.10;99.90;;;;;;5134949;27;20504;-73
2022/03/07 08:37:33;;;;;;;67.82;24.90;;;1.40;99.90;;;;;;5130545;27;20050;-74
2022/03/07 08:40:00;;;;;;;61.65;23.90;;;1.60;99.90;;;;;;5134340;27;20043;-73
2022/03/07 08:42:26;;;;;;;58.38;21.10;;;1.60;99.90;;;;;;5131732;27;20051;-74
2022/03/07 08:44:52;;;;;;;52.72;20.13;;;1.70;99.90;;;;;;5130880;27;20039;-73
2022/03/07 08:47:19;;;;;;;56.25;17.88;;;1.90;99.90;;;;;;5098911;28;20394;-73
2022/03/07 08:49:45;;;;;;;38.15;15.07;;;2.10;99.90;;;;;;5114735;28;20055;-73
2022/03/07 08:52:15;;;;;;;47.50;16.58;;;2.40;99.90;;;;;;5079082;28;20051;-73
2022/03/07 08:54:42;;;;;;;40.80;15.48;;;2.60;99.90;;;;;;5062545;28;20074;-73
2022/03/07 08:57:08;;;;;;;38.25;17.42;;;2.70;99.90;;;;;;5077586;28;20054;-74
2022/03/07 08:59:34;;;;;;;42.00;15.63;;;2.90;99.90;;;;;;5079005;28;20039;-74
2022/03/07 09:02:00;;;;;;;38.10;13.90;;;3.00;99.90;;;;;;5133114;27;20042;-74
2022/03/07 09:04:25;;;;;;;36.67;13.77;;;3.00;99.90;;;;;;5099145;27;20390;-74
2022/03/07 09:06:52;;;;;;;29.73;10.77;;;3.10;99.90;;;;;;5099371;27;20062;-74
2022/03/07 09:09:18;;;;;;;25.93;10.80;;;3.20;99.90;;;;;;5132131;27;20379;-76
2022/03/07 09:11:44;;;;;;;30.52;10.85;;;3.40;99.90;;;;;;5099072;28;20289;-74
2022/03/07 09:14:10;;;;;;;33.88;11.85;;;3.60;99.90;;;;;;5079163;28;20041;-74
2022/03/07 09:16:35;;;;;;;39.08;12.45;;;3.60;99.90;;;;;;5094868;28;20079;-73
2022/03/07 09:19:01;;;;;;;37.55;12.02;;;3.70;99.90;;;;;;5097939;27;20103;-73
2022/03/07 09:21:27;;;;;;;31.80;11.43;;;3.70;99.90;;;;;;5094441;28;20047;-73
2022/03/07 09:23:53;;;;;;;19.33;7.85;;;3.80;99.90;;;;;;5098038;27;20099;-73
2022/03/07 09:26:19;;;;;;;21.58;7.65;;;4.00;99.90;;;;;;5131280;27;20106;-75
2022/03/07 09:28:45;;;;;;;23.13;7.15;;;4.00;99.90;;;;;;5132693;27;20043;-73
2022/03/07 09:31:11;;;;;;;28.17;9.73;;;4.00;99.90;;;;;;5133721;27;20047;-73
2022/03/07 09:33:38;;;;;;;23.58;9.02;;;4.00;99.90;;;;;;5115073;27;20099;-74
2022/03/07 09:36:05;;;;;;;29.17;8.50;;;4.10;99.90;;;;;;5133445;27;20111;-74
2022/03/07 09:38:31;;;;;;;21.38;8.07;;;4.20;99.90;;;;;;5100567;28;20047;-74
2022/03/07 09:40:57;;;;;;;20.70;7.90;;;4.30;99.90;;;;;;5093467;28;20517;-74
2022/03/07 09:43:23;;;;;;;18.27;6.85;;;4.20;99.90;;;;;;5061557;28;20075;-73
2022/03/07 09:45:50;;;;;;;20.02;7.93;;;4.30;99.90;;;;;;5077653;28;20047;-74
2022/03/07 09:48:16;;;;;;;18.65;6.68;;;4.40;99.90;;;;;;5116192;27;20515;-74
2022/03/07 09:50:43;;;;;;;21.00;6.93;;;4.30;99.90;;;;;;5097738;27;20047;-74
2022/03/07 09:53:09;;;;;;;;;;;4.50;99.90;;;;;;5098670;27;20574;-73
2022/03/07 09:55:36;;;;;;;23.63;9.70;;;4.60;99.90;;;;;;5096130;27;19946;-73
2022/03/07 09:58:04;;;;;;;32.40;9.20;;;4.50;99.90;;;;;;5098731;27;20036;-73
2022/03/07 10:00:29;;;;;;;;;;;4.50;99.90;;;;;;5115073;27;20047;-73
2022/03/07 10:03:02;;;;;;;21.13;7.18;;;4.60;99.90;;;;;;5115375;27;19919;-73
2022/03/07 10:05:32;;;;;;;21.17;7.45;;;4.60;99.90;;;;;;5114300;27;20080;-74
2022/03/07 10:07:58;;;;;;;18.88;8.40;;;4.70;99.90;;;;;;5115124;27;20074;-73
2022/03/07 10:10:32;;;;;;;18.27;6.60;;;4.90;99.90;;;;;;5100077;28;20483;-74
2022/03/07 10:13:06;;;;;;;17.58;7.07;;;4.90;99.90;;;;;;5103595;27;20417;-73
2022/03/07 10:15:32;;;;;;;21.83;7.72;;;5.00;99.90;;;;;;5132524;27;20043;-73
2022/03/07 10:17:58;;;;;;;16.70;6.07;;;5.00;99.90;;;;;;5114769;27;20051;-73
2022/03/07 10:20:25;;;;;;;14.90;5.60;;;5.10;99.90;;;;;;5131239;27;20091;-74
2022/03/07 10:22:56;;;;;;;13.70;5.15;;;5.10;99.90;;;;;;5103384;27;20146;-73
2022/03/07 10:25:29;;;;;;;12.95;5.18;;;5.20;99.90;;;;;;5130356;27;20090;-73
2022/03/07 10:27:57;;;;;;;17.63;5.32;;;5.30;99.90;;;;;;5114945;27;20095;-73
2022/03/07 10:30:25;;;;;;;16.35;6.57;;;5.30;99.90;;;;;;5131272;27;20035;-74
2022/03/07 10:32:52;;;;;;;18.10;7.45;;;5.40;99.90;;;;;;5133117;27;20058;-74
2022/03/07 10:35:27;;;;;;;17.52;6.68;;;5.40;99.90;;;;;;5129517;27;20084;-74
2022/03/07 10:38:01;;;;;;;15.25;5.53;;;5.40;99.90;;;;;;5132291;27;20039;-74
2022/03/07 10:40:29;;;;;;;14.20;5.57;;;5.40;99.90;;;;;;5112385;27;20401;-74
2022/03/07 10:42:55;;;;;;;15.20;5.72;;;5.50;99.90;;;;;;5114921;27;20080;-74
2022/03/07 10:45:23;;;;;;;17.90;6.40;;;5.60;99.90;;;;;;5097991;28;20140;-73
2022/03/07 10:47:57;;;;;;;17.77;6.20;;;5.70;99.90;;;;;;5077025;28;20055;-74
2022/03/07 10:50:24;;;;;;;18.13;6.40;;;5.80;99.90;;;;;;5093921;28;20043;-74
2022/03/07 10:52:53;;;;;;;19.17;7.00;;;5.80;99.90;;;;;;5076736;28;20052;-73
2022/03/07 10:55:27;;;;;;;19.85;6.68;;;5.90;99.90;;;;;;5123128;27;20047;-75
2022/03/07 10:58:13;;;;;;;15.40;6.85;;;6.20;99.90;;;;;;5101799;27;20039;-75
2022/03/07 11:00:57;;;;;;;19.17;6.57;;;6.30;99.90;;;;;;5130755;27;20490;-74
2022/03/07 11:03:28;;;;;;;21.45;6.60;;;6.00;99.90;;;;;;5106790;27;20040;-73
2022/03/07 11:05:54;;;;;;;19.60;6.38;;;6.20;99.90;;;;;;5131112;27;20050;-74
2022/03/07 11:08:21;;;;;;;17.70;5.38;;;6.10;99.90;;;;;;5114455;27;20043;-74
2022/03/07 11:10:55;;;;;;;12.93;5.25;;;6.20;99.90;;;;;;5129530;27;20104;-73
2022/03/07 11:13:27;;;;;;;16.50;4.68;;;6.20;99.90;;;;;;5113895;27;20119;-73
2022/03/07 11:16:02;;;;;;;16.48;5.35;;;6.30;99.90;;;;;;5096858;27;20436;-74
2022/03/07 11:18:30;;;;;;;21.17;5.45;;;6.30;99.90;;;;;;5132293;27;20149;-73
2022/03/07 11:20:57;;;;;;;18.15;4.72;;;6.30;99.90;;;;;;5102279;28;20047;-73
2022/03/07 11:23:23;;;;;;;19.85;5.20;;;6.30;99.90;;;;;;5110790;27;20452;-72
2022/03/07 11:25:54;;;;;;;16.83;5.80;;;6.20;99.90;;;;;;5128730;27;20133;-74
2022/03/07 11:28:27;;;;;;;16.75;4.65;;;6.30;99.90;;;;;;5097874;27;20043;-72
2022/03/07 11:30:53;;;;;;;19.13;5.47;;;6.50;99.90;;;;;;5131166;27;20740;-73
2022/03/07 11:33:27;;;;;;;15.20;5.03;;;6.60;99.90;;;;;;5114259;27;20039;-73
2022/03/07 11:35:54;;;;;;;14.82;5.30;;;6.70;99.90;;;;;;5130774;27;20042;-73
2022/03/07 11:38:22;;;;;;;;;;;6.60;99.90;;;;;;5114328;28;20122;-72
2022/03/07 11:41:00;;;;;;;15.32;4.60;;;6.60;99.90;;;;;;5129706;28;20018;-74
2022/03/07 11:43:32;;;;;;;13.45;5.25;;;6.40;99.90;;;;;;5129591;28;20043;-74
2022/03/07 11:45:59;;;;;;;10.55;4.38;;;6.40;99.90;;;;;;5130139;28;20131;-74
2022/03/07 11:48:29;;;;;;;12.85;4.05;;;6.50;99.90;;;;;;5132445;27;20047;-76
2022/03/07 11:50:55;;;;;;;13.80;4.95;;;6.50;99.90;;;;;;5130786;27;20039;-73
2022/03/07 11:53:21;;;;;;;13.88;4.22;;;6.50;99.90;;;;;;5097357;28;20049;-74
2022/03/07 11:55:50;;;;;;;11.93;4.35;;;6.60;99.90;;;;;;5111226;28;20046;-73
2022/03/07 11:58:31;;;;;;;15.25;4.53;;;6.60;99.90;;;;;;5097230;28;20043;-73
2022/03/07 12:01:11;;;;;;;8.20;3.25;;;6.70;99.90;;;;;;5112561;28;20047;-73
2022/03/07 12:03:37;;;;;;;8.23;2.88;;;6.70;99.90;;;;;;5115992;28;20047;-75
2022/03/07 12:06:11;;;;;;;11.68;3.10;;;6.70;99.90;;;;;;5127045;28;20051;-73
2022/03/07 12:08:50;;;;;;;12.35;3.88;;;6.70;99.90;;;;;;5096161;28;20043;-75
2022/03/07 12:11:32;;;;;;;7.60;2.97;;;6.70;99.90;;;;;;5091058;28;20085;-72
2022/03/07 12:14:06;;;;;;;8.93;2.88;;;6.70;99.90;;;;;;5113742;28;20108;-72
2022/03/07 12:16:35;;;;;;;7.93;2.22;;;6.80;99.90;;;;;;5123042;28;20055;-73
2022/03/07 12:19:07;;;;;;;6.50;2.33;;;6.80;99.90;;;;;;5129780;28;20098;-72
2022/03/07 12:21:33;;;;;;;11.13;2.95;;;7.00;99.90;;;;;;5112848;28;20046;-74
2022/03/07 12:23:59;;;;;;;17.70;6.05;;;7.10;99.90;;;;;;5113331;28;20058;-73
2022/03/07 12:26:25;;;;;;;5.88;2.05;;;7.30;99.90;;;;;;5126891;28;20043;-74
2022/03/07 12:28:51;;;;;;;11.25;4.38;;;7.50;99.90;;;;;;5113124;28;20047;-73
2022/03/07 12:31:17;;;;;;;40.78;11.63;;;7.50;99.90;;;;;;5112962;28;20070;-72
2022/03/07 12:33:47;;;;;;;13.35;4.30;;;7.40;99.90;;;;;;5131338;27;20051;-74
2022/03/07 12:36:15;;;;;;;24.88;7.18;;;7.40;99.90;;;;;;5129821;28;20047;-74